createdAt,value
2019-05-05T00:03:04.160Z,95.10
2019-05-05T00:06:14.665Z,95.10
2019-05-05T00:09:35.130Z,95.10
2019-05-05T00:13:04.459Z,95.10
2019-05-05T00:16:30.742Z,95.20
2019-05-05T00:19:39.362Z,95.20
2019-05-05T00:22:47.947Z,95.60
2019-05-05T00:26:06.847Z,95.50
2019-05-05T00:29:15.471Z,95.50
2019-05-05T00:32:24.577Z,95.40
2019-05-05T00:35:49.766Z,95.70
2019-05-05T00:38:58.277Z,95.80
2019-05-05T00:42:07.288Z,95.60
2019-05-05T00:45:16.510Z,95.80
2019-05-05T00:48:35.039Z,95.70
2019-05-05T00:51:54.687Z,96.10
2019-05-05T00:55:04.598Z,96.10
2019-05-05T00:58:24.724Z,96.00
2019-05-05T01:01:44.881Z,96.20
2019-05-05T01:05:04.529Z,96.10
2019-05-05T01:08:17.346Z,96.10
2019-05-05T01:11:26.006Z,96.40
2019-05-05T01:14:34.592Z,96.40
2019-05-05T01:17:45.016Z,96.50
2019-05-05T01:20:55.194Z,96.80
2019-05-05T01:24:05.142Z,97.10
2019-05-05T01:27:14.724Z,97.30
2019-05-05T01:30:29.622Z,96.70
2019-05-05T01:33:57.137Z,97.00
2019-05-05T01:37:12.784Z,97.00
2019-05-05T01:40:32.075Z,97.30
2019-05-05T01:43:59.082Z,97.40
2019-05-05T01:47:07.737Z,97.60
2019-05-05T01:50:20.914Z,97.70
2019-05-05T01:53:26.790Z,97.90
2019-05-05T01:56:35.996Z,97.80
2019-05-05T01:59:45.050Z,97.90
2019-05-05T02:03:04.564Z,97.90
2019-05-05T02:06:14.577Z,98.00
2019-05-05T02:09:35.388Z,97.90
2019-05-05T02:12:44.713Z,98.00
2019-05-05T02:15:55.252Z,97.90
2019-05-05T02:19:14.356Z,98.20
2019-05-05T02:22:35.514Z,98.20
2019-05-05T02:25:44.781Z,98.40
2019-05-05T02:29:04.880Z,98.30
2019-05-05T02:32:41.811Z,98.30
2019-05-05T02:36:08.565Z,98.40
2019-05-05T02:39:17.149Z,98.10
2019-05-05T02:42:28.076Z,98.40
2019-05-05T02:46:21.509Z,98.50
2019-05-05T02:49:31.409Z,98.50
2019-05-05T02:52:50.751Z,98.40
2019-05-05T02:56:16.513Z,98.10
2019-05-05T02:59:44.260Z,98.10
2019-05-05T03:02:53.863Z,97.90
2019-05-05T03:06:04.392Z,98.30
2019-05-05T03:09:14.807Z,98.20
2019-05-05T03:12:25.936Z,98.20
2019-05-05T03:16:03.797Z,98.20
2019-05-05T03:19:25.550Z,98.10
2019-05-05T03:22:34.195Z,98.40
2019-05-05T03:25:44.035Z,98.70
2019-05-05T03:29:05.180Z,99.00
2019-05-05T03:32:25.846Z,98.70
2019-05-05T03:35:34.638Z,98.60
2019-05-05T03:38:44.529Z,98.50
2019-05-05T03:42:13.963Z,98.20
2019-05-05T03:45:34.261Z,98.50
2019-05-05T03:48:43.843Z,98.50
2019-05-05T03:51:54.366Z,98.30
2019-05-05T03:55:03.785Z,98.40
2019-05-05T03:58:14.510Z,98.70
2019-05-05T04:01:38.696Z,98.70
2019-05-05T04:04:49.740Z,98.80
2019-05-05T04:07:58.360Z,98.90
2019-05-05T04:11:06.881Z,98.40
2019-05-05T04:14:18.485Z,98.70
2019-05-05T04:17:53.607Z,99.00
2019-05-05T04:21:04.011Z,98.70
2019-05-05T04:24:14.508Z,99.00
2019-05-05T04:27:23.907Z,98.40
2019-05-05T04:30:33.857Z,99.00
2019-05-05T04:33:53.843Z,98.50
2019-05-05T04:37:04.167Z,98.70
2019-05-05T04:40:14.862Z,98.60
2019-05-05T04:43:24.626Z,98.60
2019-05-05T04:46:45.269Z,98.70
2019-05-05T04:50:09.044Z,98.50
2019-05-05T04:53:24.132Z,98.70
2019-05-05T04:56:53.866Z,98.80
2019-05-05T05:00:04.108Z,98.40
2019-05-05T05:03:29.528Z,98.50
2019-05-05T05:06:43.489Z,98.20
2019-05-05T05:09:53.915Z,98.00
2019-05-05T05:13:04.482Z,97.80
2019-05-05T05:16:13.911Z,97.80
2019-05-05T05:19:24.165Z,97.90
2019-05-05T05:22:44.021Z,97.80
2019-05-05T05:25:54.415Z,97.80
2019-05-05T05:29:04.513Z,96.80
2019-05-05T05:32:15.486Z,96.20
2019-05-05T05:35:24.432Z,95.60
2019-05-05T05:38:34.680Z,95.30
2019-05-05T05:41:44.631Z,93.70
2019-05-05T05:45:28.413Z,92.50
2019-05-05T05:48:43.702Z,90.50
2019-05-05T05:51:53.839Z,89.40
2019-05-05T05:55:04.126Z,88.90
2019-05-05T05:58:14.043Z,87.40
2019-05-05T06:01:34.593Z,87.20
2019-05-05T06:04:44.615Z,84.00
2019-05-05T06:07:54.494Z,83.40
2019-05-05T06:11:04.428Z,81.00
2019-05-05T06:14:14.536Z,81.20
2019-05-05T06:17:25.395Z,79.60
2019-05-05T06:20:34.807Z,77.80
2019-05-05T06:23:43.829Z,76.80
2019-05-05T06:26:54.575Z,75.70
2019-05-05T06:30:04.645Z,75.20
2019-05-05T06:33:13.782Z,73.80
2019-05-05T06:36:23.449Z,72.10
2019-05-05T06:39:33.478Z,74.80
2019-05-05T06:43:02.089Z,74.70
2019-05-05T06:46:35.456Z,76.20
2019-05-05T06:49:44.092Z,76.90
2019-05-05T06:53:04.289Z,77.50
2019-05-05T06:56:14.598Z,77.80
2019-05-05T06:59:24.329Z,76.90
2019-05-05T07:02:35.244Z,77.70
2019-05-05T07:05:43.998Z,77.30
2019-05-05T07:08:54.444Z,74.70
2019-05-05T07:12:04.518Z,74.80
2019-05-05T07:15:14.522Z,72.70
2019-05-05T07:18:34.220Z,71.60
2019-05-05T07:21:43.631Z,72.30
2019-05-05T07:24:54.180Z,70.00
2019-05-05T07:28:04.250Z,66.30
2019-05-05T07:31:14.384Z,67.20
2019-05-05T07:34:24.500Z,66.60
2019-05-05T07:37:57.118Z,65.70
2019-05-05T07:41:05.777Z,66.20
2019-05-05T07:44:25.937Z,66.10
2019-05-05T07:47:24.558Z,66.60
2019-05-05T07:50:35.663Z,66.50
2019-05-05T07:53:44.256Z,64.50
2019-05-05T07:57:04.203Z,63.10
2019-05-05T08:00:14.826Z,62.00
2019-05-05T08:03:23.737Z,61.90
2019-05-05T08:06:33.917Z,62.60
2019-05-05T08:09:44.414Z,62.80
2019-05-05T08:12:54.224Z,61.60
2019-05-05T08:16:04.968Z,61.80
2019-05-05T08:19:45.092Z,63.50
2019-05-05T08:23:32.636Z,67.20
2019-05-05T08:26:47.254Z,67.50
2019-05-05T08:30:02.296Z,69.00
2019-05-05T08:33:11.287Z,66.80
2019-05-05T08:36:19.893Z,66.60
2019-05-05T08:39:28.414Z,67.80
2019-05-05T08:42:47.344Z,67.80
2019-05-05T08:45:56.010Z,68.50
2019-05-05T08:49:04.735Z,68.80
2019-05-05T08:52:11.945Z,68.20
2019-05-05T08:55:20.687Z,67.90
2019-05-05T08:58:29.231Z,70.20
2019-05-05T09:01:38.564Z,69.50
2019-05-05T09:04:47.453Z,71.50
2019-05-05T09:07:56.121Z,74.90
2019-05-05T09:11:05.038Z,75.90
2019-05-05T09:14:14.871Z,76.20
2019-05-05T09:17:24.293Z,78.20
2019-05-05T09:20:34.782Z,77.40
2019-05-05T09:24:01.556Z,79.50
2019-05-05T09:27:50.733Z,76.60
2019-05-05T09:30:59.515Z,75.40
2019-05-05T09:34:08.119Z,75.50
2019-05-05T09:37:16.776Z,74.10
2019-05-05T09:40:38.169Z,74.80
2019-05-05T09:44:04.285Z,73.90
2019-05-05T09:47:13.634Z,72.60
2019-05-05T09:50:23.707Z,72.10
2019-05-05T09:53:34.250Z,71.30
2019-05-05T09:56:44.455Z,71.50
2019-05-05T09:59:55.775Z,72.80
2019-05-05T10:03:04.423Z,70.60
2019-05-05T10:06:24.381Z,72.80
2019-05-05T10:09:34.491Z,72.30
2019-05-05T10:12:47.655Z,73.70
2019-05-05T10:16:06.833Z,71.80
2019-05-05T10:19:15.513Z,71.60
2019-05-05T10:22:24.141Z,72.80
2019-05-05T10:25:37.552Z,72.50
2019-05-05T10:28:46.193Z,69.50
2019-05-05T10:31:54.708Z,70.00
2019-05-05T10:35:04.449Z,71.10
2019-05-05T10:38:23.672Z,70.90
2019-05-05T10:41:33.784Z,69.20
2019-05-05T10:44:44.486Z,68.20
2019-05-05T10:47:53.259Z,68.60
2019-05-05T10:51:04.028Z,68.10
2019-05-05T10:54:14.159Z,68.10
2019-05-05T10:57:23.635Z,67.20
2019-05-05T11:00:44.406Z,66.60
2019-05-05T11:03:52.687Z,66.60
2019-05-05T11:07:01.274Z,67.60
2019-05-05T11:10:10.333Z,68.50
2019-05-05T11:13:20.010Z,68.30
2019-05-05T11:16:39.087Z,68.80
2019-05-05T11:19:50.187Z,68.20
2019-05-05T11:22:58.000Z,68.10
2019-05-05T11:26:06.602Z,69.00
2019-05-05T11:29:14.382Z,66.50
2019-05-05T11:32:44.005Z,67.00
2019-05-05T11:36:00.019Z,66.40
2019-05-05T11:39:11.268Z,64.40
2019-05-05T11:42:19.920Z,63.90
2019-05-05T11:45:28.581Z,61.90
2019-05-05T11:48:37.226Z,61.50
2019-05-05T11:51:45.873Z,60.50
2019-05-05T11:55:08.612Z,60.10
2019-05-05T11:58:05.051Z,59.60
2019-05-05T12:01:14.022Z,59.30
2019-05-05T12:04:24.007Z,57.60
2019-05-05T12:07:34.233Z,55.00
2019-05-05T12:10:51.532Z,55.00
2019-05-05T12:14:03.834Z,55.90
2019-05-05T12:17:13.935Z,56.20
2019-05-05T12:20:33.714Z,56.40
2019-05-05T12:23:44.221Z,55.80
2019-05-05T12:27:11.314Z,56.00
2019-05-05T12:30:19.912Z,56.20
2019-05-05T12:33:28.486Z,54.10
2019-05-05T12:36:37.009Z,54.40
2019-05-05T12:39:45.631Z,55.10
2019-05-05T12:42:54.856Z,56.00
2019-05-05T12:46:13.828Z,54.70
2019-05-05T12:49:40.805Z,55.20
2019-05-05T12:52:49.323Z,55.90
2019-05-05T12:55:57.844Z,56.20
2019-05-05T12:59:10.851Z,56.20
2019-05-05T13:02:30.591Z,55.40
2019-05-05T13:05:39.186Z,55.10
2019-05-05T13:08:47.921Z,55.80
2019-05-05T13:11:56.459Z,56.20
2019-05-05T13:15:05.681Z,54.90
2019-05-05T13:18:14.301Z,56.10
2019-05-05T13:21:40.423Z,55.10
2019-05-05T13:25:00.658Z,55.10
2019-05-05T13:28:10.407Z,54.70
2019-05-05T13:31:29.243Z,53.80
2019-05-05T13:34:37.841Z,53.30
2019-05-05T13:37:46.572Z,52.20
2019-05-05T13:40:54.441Z,51.60
2019-05-05T13:44:24.274Z,52.50
2019-05-05T13:47:34.376Z,51.60
2019-05-05T13:50:48.597Z,52.10
2019-05-05T13:53:57.230Z,51.50
2019-05-05T13:57:06.567Z,51.50
2019-05-05T14:00:25.825Z,51.00
2019-05-05T14:03:45.180Z,51.10
2019-05-05T14:07:04.309Z,51.40
2019-05-05T14:10:11.695Z,51.40
2019-05-05T14:13:30.807Z,50.70
2019-05-05T14:16:40.640Z,51.20
2019-05-05T14:20:01.399Z,51.10
2019-05-05T14:22:59.708Z,52.10
2019-05-05T14:26:08.369Z,50.70
2019-05-05T14:29:38.318Z,50.60
2019-05-05T14:32:48.705Z,50.90
2019-05-05T14:36:07.346Z,51.20
2019-05-05T14:39:16.648Z,52.50
2019-05-05T14:42:25.352Z,52.90
2019-05-05T14:45:34.106Z,52.50
2019-05-05T14:48:44.078Z,52.40
2019-05-05T14:51:53.823Z,52.70
2019-05-05T14:55:03.911Z,52.70
2019-05-05T14:58:23.059Z,51.70
2019-05-05T15:01:31.578Z,51.80
2019-05-05T15:04:43.788Z,53.10
2019-05-05T15:08:02.569Z,55.40
2019-05-05T15:11:15.622Z,56.50
2019-05-05T15:14:24.449Z,56.20
2019-05-05T15:17:33.787Z,56.30
2019-05-05T15:20:54.334Z,56.70
2019-05-05T15:24:03.178Z,56.60
2019-05-05T15:27:11.814Z,57.10
2019-05-05T15:30:20.549Z,57.80
2019-05-05T15:33:27.773Z,57.60
2019-05-05T15:36:36.394Z,57.00
2019-05-05T15:39:45.034Z,56.20
2019-05-05T15:42:54.450Z,56.50
2019-05-05T15:46:15.246Z,57.30
2019-05-05T15:49:24.197Z,58.10
2019-05-05T15:52:35.174Z,57.80
2019-05-05T15:55:45.384Z,58.40
2019-05-05T15:58:52.509Z,58.60
2019-05-05T16:02:13.316Z,59.20
2019-05-05T16:05:24.143Z,58.20
2019-05-05T16:08:33.946Z,57.90
2019-05-05T16:11:44.435Z,58.80
2019-05-05T16:15:11.110Z,58.80
2019-05-05T16:19:03.117Z,57.80
2019-05-05T16:22:03.921Z,58.10
2019-05-05T16:25:16.279Z,58.60
2019-05-05T16:28:35.273Z,58.80
2019-05-05T16:31:43.999Z,59.30
2019-05-05T16:34:54.751Z,59.10
2019-05-05T16:38:03.838Z,58.60
2019-05-05T16:41:15.233Z,58.90
2019-05-05T16:44:23.852Z,58.00
2019-05-05T16:47:33.641Z,56.70
2019-05-05T16:50:44.182Z,56.30
2019-05-05T16:53:53.910Z,56.90
2019-05-05T16:57:03.974Z,57.60
2019-05-05T17:00:12.401Z,58.40
2019-05-05T17:03:23.981Z,58.20
2019-05-05T17:06:32.704Z,55.10
2019-05-05T17:09:51.553Z,54.40
2019-05-05T17:13:03.215Z,54.40
2019-05-05T17:16:37.167Z,55.40
2019-05-05T17:19:53.965Z,57.00
2019-05-05T17:23:05.328Z,57.90
2019-05-05T17:26:14.343Z,57.90
2019-05-05T17:29:23.618Z,58.00
2019-05-05T17:32:34.333Z,57.60
2019-05-05T17:35:42.748Z,58.40
2019-05-05T17:38:51.420Z,60.00
2019-05-05T17:42:08.335Z,65.50
2019-05-05T17:45:45.618Z,67.50
2019-05-05T17:49:59.249Z,69.50
2019-05-05T17:53:46.907Z,71.70
2019-05-05T17:56:55.571Z,74.00
2019-05-05T18:00:04.829Z,75.70
2019-05-05T18:03:13.363Z,76.70
2019-05-05T18:06:40.907Z,78.20
2019-05-05T18:10:07.419Z,78.90
2019-05-05T18:13:25.865Z,79.70
2019-05-05T18:16:34.487Z,79.70
2019-05-05T18:19:43.590Z,80.50
2019-05-05T18:22:53.607Z,81.30
2019-05-05T18:26:04.152Z,81.80
2019-05-05T18:29:14.471Z,82.50
2019-05-05T18:32:23.549Z,82.70
2019-05-05T18:35:33.927Z,82.80
2019-05-05T18:38:44.489Z,83.60
2019-05-05T18:42:13.816Z,83.40
2019-05-05T18:45:23.762Z,83.40
2019-05-05T18:48:34.364Z,83.60
2019-05-05T18:51:43.912Z,83.90
2019-05-05T18:54:54.515Z,84.40
2019-05-05T18:58:04.592Z,84.60
2019-05-05T19:01:44.525Z,84.80
2019-05-05T19:05:11.475Z,85.20
2019-05-05T19:08:29.234Z,85.00
2019-05-05T19:11:51.719Z,85.30
2019-05-05T19:15:00.530Z,85.50
2019-05-05T19:18:09.459Z,86.10
2019-05-05T19:21:26.318Z,86.60
2019-05-05T19:24:35.396Z,87.10
2019-05-05T19:27:45.050Z,87.30
2019-05-05T19:30:54.970Z,87.70
2019-05-05T19:34:04.177Z,88.40
2019-05-05T19:37:14.027Z,88.80
2019-05-05T19:40:24.334Z,89.40
2019-05-05T19:43:33.948Z,89.90
2019-05-05T19:46:49.345Z,90.10
2019-05-05T19:50:19.623Z,90.20
2019-05-05T19:53:28.211Z,90.60
2019-05-05T19:56:37.416Z,90.70
2019-05-05T19:59:46.014Z,90.90
2019-05-05T20:03:04.004Z,91.30
2019-05-05T20:06:05.146Z,91.40
2019-05-05T20:09:24.762Z,91.50
2019-05-05T20:12:35.300Z,91.60
2019-05-05T20:15:50.795Z,91.80
2019-05-05T20:18:59.467Z,91.80
2019-05-05T20:22:07.996Z,91.70
2019-05-05T20:25:18.801Z,91.90
2019-05-05T20:28:28.526Z,92.20
2019-05-05T20:31:54.947Z,92.00
2019-05-05T20:35:10.021Z,91.90
2019-05-05T20:38:26.581Z,91.60
2019-05-05T20:41:35.206Z,91.50
2019-05-05T20:44:45.057Z,91.50
2019-05-05T20:47:53.661Z,91.40
2019-05-05T20:51:13.818Z,91.50
2019-05-05T20:54:23.752Z,91.70
2019-05-05T20:57:34.451Z,91.50
2019-05-05T21:00:44.245Z,91.30
2019-05-05T21:04:04.773Z,91.10
2019-05-05T21:07:14.099Z,91.20
2019-05-05T21:10:24.267Z,91.20
2019-05-05T21:13:45.046Z,91.20
2019-05-05T21:16:54.767Z,91.10
2019-05-05T21:20:04.319Z,90.80
2019-05-05T21:23:43.811Z,91.00
2019-05-05T21:27:04.326Z,91.20
2019-05-05T21:30:23.889Z,91.30
2019-05-05T21:33:34.736Z,91.00
2019-05-05T21:36:54.022Z,91.20
2019-05-05T21:40:04.691Z,91.00
2019-05-05T21:43:15.364Z,91.20
2019-05-05T21:46:24.133Z,91.00
2019-05-05T21:49:33.766Z,91.10
2019-05-05T21:52:57.678Z,91.40
2019-05-05T21:56:27.726Z,91.50
2019-05-05T21:59:37.363Z,91.80
2019-05-05T22:02:46.353Z,91.80
2019-05-05T22:05:56.070Z,91.60
2019-05-05T22:09:07.195Z,91.50
2019-05-05T22:12:15.801Z,91.60
2019-05-05T22:15:24.323Z,91.80
2019-05-05T22:18:32.993Z,92.10
2019-05-05T22:21:45.982Z,92.30
2019-05-05T22:24:54.509Z,92.90
2019-05-05T22:28:04.257Z,93.10
2019-05-05T22:31:14.224Z,93.30
2019-05-05T22:34:33.504Z,93.00
2019-05-05T22:37:52.425Z,92.90
2019-05-05T22:41:01.161Z,92.90
2019-05-05T22:44:10.596Z,93.00
2019-05-05T22:47:29.358Z,92.90
2019-05-05T22:50:38.073Z,93.00
2019-05-05T22:53:48.946Z,93.10
2019-05-05T22:57:07.927Z,93.10
2019-05-05T23:00:26.622Z,93.00
2019-05-05T23:03:36.426Z,93.20
2019-05-05T23:06:46.482Z,93.50
2019-05-05T23:09:55.194Z,93.70
2019-05-05T23:13:04.029Z,93.70
2019-05-05T23:16:23.732Z,93.80
2019-05-05T23:19:55.730Z,93.90
2019-05-05T23:23:34.286Z,94.00
2019-05-05T23:26:43.937Z,93.80
2019-05-05T23:29:52.543Z,94.00
2019-05-05T23:33:01.532Z,94.10
2019-05-05T23:36:10.497Z,94.20
2019-05-05T23:39:19.163Z,94.20
2019-05-05T23:42:27.812Z,94.10
2019-05-05T23:45:36.566Z,94.40
2019-05-05T23:48:55.292Z,94.30
2019-05-05T23:52:04.400Z,94.60
2019-05-05T23:55:23.921Z,94.60
2019-05-05T23:58:34.717Z,94.60
